Time;durP1;ratioP1;P1;durP2;ratioP2;P2;SDS_P1;SDS_P2;PMS_P1;PMS_P2;Temp;Humidity;BMP_temperature;BMP_pressure;BME280_temperature;BME280_humidity;BME280_pressure;Samples;Min_cycle;Max_cycle;Signal;HPM_P1;HPM_P2
2023/08/17 00:01:44;;;;;;;7.10;6.65;;;;;;;22.30;100.00;154314.31;10507179;28;20123;-74
2023/08/17 00:06:46;;;;;;;8.25;7.65;;;;;;;22.14;100.00;154275.28;10506511;28;20064;-75
2023/08/17 00:11:48;;;;;;;7.03;6.53;;;;;;;21.78;100.00;154181.50;10506528;28;20044;-75
2023/08/17 00:16:51;;;;;;;6.72;6.32;;;;;;;21.52;100.00;154115.19;10505078;28;20514;-74
2023/08/17 00:21:54;;;;;;;7.88;7.38;;;;;;;21.78;100.00;154181.50;10505137;28;20036;-74
2023/08/17 00:26:56;;;;;;;7.47;6.93;;;;;;;21.64;100.00;154147.66;10504426;28;20040;-75
2023/08/17 00:31:58;;;;;;;7.40;6.88;;;;;;;21.41;100.00;154089.13;10504353;28;20045;-74
2023/08/17 00:37:00;;;;;;;9.30;8.70;;;;;;;21.61;100.00;154138.59;10486250;28;20486;-75
2023/08/17 00:42:02;;;;;;;7.63;7.03;;;;;;;21.34;100.00;154069.63;10486263;28;20056;-74
2023/08/17 00:47:04;;;;;;;7.80;7.25;;;;;;;21.30;100.00;154059.19;10503539;28;20048;-75
2023/08/17 00:52:06;;;;;;;7.85;7.28;;;;;;;21.02;100.00;153988.91;10485762;28;20045;-75
2023/08/17 00:57:09;;;;;;;8.27;7.68;;;;;;;20.96;100.00;153973.31;10503571;28;20440;-74
2023/08/17 01:02:11;;;;;;;8.18;7.68;;;;;;;21.26;100.00;154048.75;10502962;28;20052;-75
2023/08/17 01:07:13;;;;;;;8.75;8.13;;;;;;;21.06;100.00;153999.31;10502538;28;20111;-76
2023/08/17 01:12:32;;;;;;;9.30;8.70;;;;;;;20.89;100.00;153955.06;10503793;28;20494;-71
2023/08/17 01:17:43;;;;;;;9.27;8.60;;;;;;;20.69;100.00;153903.09;10502644;28;20478;-72
2023/08/17 01:22:48;;;;;;;8.93;8.32;;;;;;;20.50;100.00;153855.00;10502805;28;20119;-72
2023/08/17 01:27:50;;;;;;;9.35;8.65;;;;;;;20.87;100.00;153951.19;10501833;28;20123;-71
2023/08/17 01:33:00;;;;;;;9.73;8.93;;;;;;;20.56;100.00;153871.88;10484012;28;20115;-71
2023/08/17 01:38:07;;;;;;;8.30;7.70;;;;;;;20.39;100.00;153827.59;10483964;28;20044;-72
2023/08/17 01:43:11;;;;;;;9.45;8.80;;;;;;;20.48;100.00;153851.06;10485195;28;20100;-71
2023/08/17 01:48:13;;;;;;;10.73;10.00;;;;;;;20.81;100.00;153934.31;10501904;28;20041;-72
2023/08/17 01:53:14;;;;;;;10.27;9.60;;;;;;;20.56;100.00;153870.56;10500714;28;20553;-72
2023/08/17 01:58:16;;;;;;;9.82;9.13;;;;;;;20.17;100.00;153773.00;10482687;28;20044;-72
2023/08/17 02:03:18;;;;;;;9.85;9.15;;;;;;;20.04;100.00;153739.19;10482241;28;20417;-72
2023/08/17 02:08:20;;;;;;;10.30;9.60;;;;;;;20.21;100.00;153782.09;10499948;28;20045;-71
2023/08/17 02:13:21;;;;;;;9.60;9.00;;;;;;;20.21;100.00;153780.81;10482012;28;20076;-73
2023/08/17 02:18:23;;;;;;;9.38;8.77;;;;;;;20.15;100.00;153766.53;10482077;28;20062;-72
2023/08/17 02:23:25;;;;;;;8.82;8.23;;;;;;;20.37;100.00;153823.72;10483269;28;20072;-73
2023/08/17 02:28:27;;;;;;;9.30;8.73;;;;;;;20.54;100.00;153866.69;10467223;28;20586;-72
2023/08/17 02:33:29;;;;;;;9.85;9.02;;;;;;;20.04;100.00;153737.91;10499338;28;20036;-71
2023/08/17 02:38:30;;;;;;;9.38;8.68;;;;;;;20.11;100.00;153757.41;10499476;28;20509;-72
2023/08/17 02:43:32;;;;;;;9.90;9.23;;;;;;;20.20;100.00;153779.53;10481463;28;20075;-72
2023/08/17 02:48:34;;;;;;;10.30;9.60;;;;;;;20.07;100.00;153747.00;10501261;28;20068;-71
2023/08/17 02:53:36;;;;;;;9.05;8.45;;;;;;;19.86;100.00;153693.72;10499561;28;20052;-72
2023/08/17 02:58:41;;;;;;;9.55;8.95;;;;;;;20.14;100.00;153763.88;10499533;28;20115;-72
2023/08/17 03:03:43;;;;;;;9.27;8.67;;;;;;;19.99;100.00;153724.91;10483108;28;20040;-72
2023/08/17 03:08:45;;;;;;;9.63;9.02;;;;;;;20.10;100.00;153754.81;10498443;28;20058;-72
2023/08/17 03:13:48;;;;;;;10.07;9.40;;;;;;;20.14;100.00;153763.88;10481756;28;20114;-73
2023/08/17 03:18:50;;;;;;;7.70;7.18;;;;;;;20.02;100.00;153734.03;10499166;28;20482;-72
2023/08/17 03:23:52;;;;;;;8.30;7.75;;;;;;;19.96;100.00;153717.09;10480903;28;20146;-72
2023/08/17 03:28:54;;;;;;;7.60;7.20;;;;;;;20.16;100.00;153769.13;10480148;28;20520;-72
2023/08/17 03:33:56;;;;;;;8.95;8.20;;;;;;;19.80;100.00;153678.13;10497876;28;20101;-71
2023/08/17 03:38:59;;;;;;;8.32;7.82;;;;;;;19.67;100.00;153644.34;10497716;28;20128;-73
2023/08/17 03:44:01;;;;;;;7.97;7.53;;;;;;;19.89;100.00;153701.53;10479810;28;20048;-72
2023/08/17 03:49:03;;;;;;;9.27;8.55;;;;;;;20.16;100.00;153770.41;10480051;28;20071;-72
2023/08/17 03:54:05;;;;;;;8.07;7.47;;;;;;;19.70;100.00;153652.16;10480520;28;20048;-72
2023/08/17 03:59:06;;;;;;;8.52;7.88;;;;;;;19.66;100.00;153641.75;10479939;28;20051;-72
2023/08/17 04:04:08;;;;;;;8.25;7.65;;;;;;;19.62;100.00;153631.34;10497262;28;20041;-72
2023/08/17 04:09:10;;;;;;;8.52;7.95;;;;;;;19.68;100.00;153646.94;10478899;28;20048;-71
2023/08/17 04:14:12;;;;;;;8.18;7.63;;;;;;;19.82;100.00;153683.31;10497367;28;20101;-72
2023/08/17 04:19:14;;;;;;;8.60;8.10;;;;;;;19.73;100.00;153659.91;10479361;28;20131;-72
2023/08/17 04:24:16;;;;;;;9.23;8.63;;;;;;;19.65;100.00;153639.13;10483505;28;20044;-72
2023/08/17 04:29:18;;;;;;;9.93;9.23;;;;;;;19.58;100.00;153620.91;10504738;28;20070;-72
2023/08/17 04:34:20;;;;;;;11.07;10.38;;;;;;;19.58;100.00;153620.91;10487470;28;20055;-72
2023/08/17 04:39:21;;;;;;;10.45;9.68;;;;;;;19.71;100.00;153653.44;10486823;28;20059;-72
2023/08/17 04:44:24;;;;;;;9.57;9.07;;;;;;;19.83;100.00;153684.59;10485907;28;20097;-72
2023/08/17 04:49:26;;;;;;;10.38;9.70;;;;;;;20.04;100.00;153737.91;10485270;28;20585;-72
2023/08/17 04:54:28;;;;;;;10.43;9.75;;;;;;;20.01;100.00;153731.44;10485059;28;20561;-72
2023/08/17 04:59:31;;;;;;;11.05;10.15;;;;;;;20.05;100.00;153741.78;10485066;28;20036;-72
2023/08/17 05:04:32;;;;;;;10.02;9.43;;;;;;;20.06;100.00;153743.13;10503000;28;20040;-72
2023/08/17 05:09:34;;;;;;;10.30;9.55;;;;;;;20.08;100.00;153749.59;10502680;28;20044;-72
2023/08/17 05:14:36;;;;;;;8.77;8.18;;;;;;;20.14;100.00;153765.22;10502884;28;20123;-72
2023/08/17 05:19:39;;;;;;;10.20;9.50;;;;;;;20.25;100.00;153792.50;10502970;28;20463;-72
2023/08/17 05:24:42;;;;;;;10.40;9.65;;;;;;;20.36;100.00;153819.78;10485361;28;20036;-72
2023/08/17 05:29:44;;;;;;;9.93;9.15;;;;;;;20.63;100.00;153890.09;10484709;28;20045;-72
2023/08/17 05:34:47;;;;;;;9.45;8.85;;;;;;;20.82;100.00;153938.19;10501315;28;20044;-72
2023/08/17 05:39:49;;;;;;;8.75;8.02;;;;;;;21.17;100.00;154027.94;10483924;28;20045;-72
2023/08/17 05:44:51;;;;;;;7.38;6.88;;;;;;;21.42;100.00;154090.41;10484118;28;20044;-72
2023/08/17 05:49:52;;;;;;;9.35;7.20;;;;;;;21.32;100.00;154065.69;10501730;28;20041;-72
2023/08/17 05:54:54;;;;;;;8.45;7.75;;;;;;;21.43;100.00;154093.06;10501691;28;20443;-71
2023/08/17 05:59:56;;;;;;;8.00;7.50;;;;;;;21.17;100.00;154027.94;10483873;28;20044;-72
2023/08/17 06:04:58;;;;;;;9.50;8.80;;;;;;;21.72;100.00;154167.19;10485539;28;20044;-71
2023/08/17 06:09:59;;;;;;;10.77;10.07;;;;;;;21.78;100.00;154182.84;10484130;28;20071;-71
2023/08/17 06:15:02;;;;;;;9.75;9.05;;;;;;;21.78;100.00;154182.84;10500722;28;20131;-71
2023/08/17 06:20:05;;;;;;;9.40;8.70;;;;;;;21.81;100.00;154189.31;10500470;28;20036;-72
2023/08/17 06:25:08;;;;;;;8.73;8.02;;;;;;;21.41;100.00;154089.13;10482501;28;20060;-72
2023/08/17 06:30:10;;;;;;;9.27;8.43;;;;;;;21.59;100.00;154134.66;10499608;28;20416;-72
2023/08/17 06:35:12;;;;;;;9.15;8.50;;;;;;;21.50;100.00;154111.25;10499432;28;20066;-71
2023/08/17 06:40:14;;;;;;;8.38;7.55;;;;;;;21.60;100.00;154137.28;10499253;28;20131;-71
2023/08/17 06:45:19;;;;;;;8.10;7.50;;;;;;;21.62;100.00;154142.47;10498760;28;20383;-71
2023/08/17 06:50:20;;;;;;;7.65;6.95;;;;;;;21.74;100.00;154171.13;10481135;28;20033;-71
2023/08/17 06:55:22;;;;;;;7.00;6.43;;;;;;;22.12;97.65;154270.06;10480816;28;20485;-71
2023/08/17 07:00:24;;;;;;;7.72;7.22;;;;;;;21.87;97.37;154206.25;10500685;28;20048;-72
2023/08/17 07:05:26;;;;;;;6.78;6.28;;;;;;;22.32;96.15;154319.53;10499632;28;20132;-72
2023/08/17 07:10:28;;;;;;;7.05;6.55;;;;;;;22.63;93.48;154400.25;10498087;28;20454;-72
2023/08/17 07:15:31;;;;;;;6.95;6.45;;;;;;;22.75;90.40;154430.19;10498640;28;20400;-72
2023/08/17 07:20:32;;;;;;;6.95;6.55;;;;;;;22.81;91.14;154444.53;10497959;28;20494;-72
2023/08/17 07:25:34;;;;;;;7.90;7.38;;;;;;;23.21;87.79;154546.16;10480206;28;20076;-71
2023/08/17 07:30:36;;;;;;;7.80;7.20;;;;;;;23.45;87.06;154608.66;10498342;28;20044;-73
2023/08/17 07:35:38;;;;;;;8.38;7.85;;;;;;;23.38;87.08;154590.47;10499041;28;20651;-70
2023/08/17 07:40:42;;;;;;;7.32;6.75;;;;;;;23.73;85.60;154680.41;10498827;28;20036;-72
2023/08/17 07:45:44;;;;;;;8.57;7.95;;;;;;;24.11;79.49;154778.09;10499104;28;20044;-72
2023/08/17 07:50:53;;;;;;;7.57;7.00;;;;;;;23.78;82.96;154692.13;10497825;28;20054;-77
2023/08/17 07:55:54;;;;;;;9.32;8.52;;;;;;;24.01;83.85;154752.06;10498496;28;20041;-77
2023/08/17 08:00:56;;;;;;;8.73;8.13;;;;;;;23.53;82.81;154629.53;10503886;28;20045;-76
2023/08/17 08:05:58;;;;;;;7.90;7.40;;;;;;;24.13;81.18;154783.34;10505689;28;20049;-76
2023/08/17 08:11:00;;;;;;;7.70;6.90;;;;;;;24.39;76.28;154849.88;10505532;28;20524;-76
2023/08/17 08:16:02;;;;;;;6.97;6.50;;;;;;;24.62;79.35;154908.53;10506178;28;20042;-76
2023/08/17 08:21:03;;;;;;;7.43;7.00;;;;;;;24.46;77.74;154866.78;10505224;28;20048;-77
2023/08/17 08:26:05;;;;;;;6.55;6.15;;;;;;;24.84;74.37;154963.28;10504980;28;20064;-77
2023/08/17 08:31:07;;;;;;;6.50;6.05;;;;;;;24.81;74.57;154955.44;10504665;28;20119;-76
2023/08/17 08:36:09;;;;;;;5.95;5.47;;;;;;;24.88;74.53;154975.03;10504394;28;20044;-77
2023/08/17 08:41:11;;;;;;;6.20;5.80;;;;;;;24.75;74.86;154941.13;10505807;28;20064;-76
2023/08/17 08:46:16;;;;;;;6.03;5.63;;;;;;;25.06;73.75;155019.38;10506981;28;20128;-77
2023/08/17 08:51:25;;;;;;;6.72;6.15;;;;;;;24.98;73.27;154999.78;10489580;28;20048;-77
2023/08/17 08:56:28;;;;;;;6.75;6.25;;;;;;;24.90;75.16;154980.22;10490397;28;20063;-77
2023/08/17 09:01:33;;;;;;;6.13;5.45;;;;;;;25.21;71.72;155057.22;10462522;28;20158;-77
2023/08/17 09:06:36;;;;;;;5.80;5.43;;;;;;;25.63;71.80;155166.78;10462429;28;20124;-77
2023/08/17 09:11:37;;;;;;;5.78;5.40;;;;;;;26.13;70.16;155293.38;10461634;28;20075;-76
2023/08/17 09:16:45;;;;;;;6.10;5.70;;;;;;;25.96;68.55;155250.31;10466340;28;20037;-76
2023/08/17 09:21:47;;;;;;;5.22;4.88;;;;;;;26.37;66.79;155354.69;10481495;28;20032;-77
2023/08/17 09:26:54;;;;;;;5.95;5.43;;;;;;;26.07;67.97;155277.69;10455174;28;20037;-76
2023/08/17 09:31:56;;;;;;;5.07;4.78;;;;;;;26.51;63.46;155389.97;10488875;28;20074;-76
2023/08/17 09:37:05;;;;;;;5.20;4.80;;;;;;;26.69;64.76;155436.94;10504822;28;20067;-77
2023/08/17 09:42:07;;;;;;;4.75;4.45;;;;;;;27.36;60.81;155609.38;10505414;28;20071;-77
2023/08/17 09:47:10;;;;;;;6.00;4.53;;;;;;;27.63;58.79;155677.28;10505864;28;20079;-77
2023/08/17 09:52:13;;;;;;;5.55;5.15;;;;;;;28.02;57.75;155777.84;10463878;28;20076;-77
2023/08/17 09:57:16;;;;;;;5.05;4.55;;;;;;;28.46;54.76;155890.28;10459442;28;20528;-77
2023/08/17 10:02:23;;;;;;;4.95;4.55;;;;;;;28.91;54.13;156006.63;10481877;28;20048;-77
2023/08/17 10:07:30;;;;;;;3.97;3.67;;;;;;;29.31;53.86;156107.31;10500734;28;20100;-77
2023/08/17 10:12:45;;;;;;;4.43;4.13;;;;;;;29.35;51.35;156119.06;10502550;28;20040;-77
2023/08/17 10:17:52;;;;;;;4.68;4.35;;;;;;;29.89;51.85;156256.41;10485990;28;20045;-77
2023/08/17 10:23:14;;;;;;;4.32;4.03;;;;;;;30.35;49.92;156374.13;10484880;28;20464;-77
2023/08/17 10:28:17;;;;;;;4.30;4.00;;;;;;;30.71;50.45;156465.72;10504110;28;20505;-77
2023/08/17 10:33:20;;;;;;;4.10;3.70;;;;;;;30.69;49.50;156460.50;10502613;28;20524;-76
2023/08/17 10:38:22;;;;;;;4.03;3.72;;;;;;;30.41;49.01;156389.81;10502967;28;20033;-76
2023/08/17 10:43:33;;;;;;;4.20;3.80;;;;;;;30.44;49.42;156397.69;10502848;28;20044;-77
2023/08/17 10:48:34;;;;;;;5.18;4.78;;;;;;;31.04;47.66;156552.13;10501689;28;20040;-77
2023/08/17 10:53:43;;;;;;;4.30;4.00;;;;;;;31.45;47.79;156655.56;10503875;28;20044;-78
2023/08/17 10:58:44;;;;;;;4.50;4.20;;;;;;;31.51;46.35;156671.25;10506156;28;20079;-78
2023/08/17 11:03:46;;;;;;;6.32;4.65;;;;;;;31.37;47.11;156637.22;10506559;28;20037;-77
2023/08/17 11:08:55;;;;;;;6.53;5.20;;;;;;;31.46;47.82;156658.16;10504469;28;20051;-77
2023/08/17 11:13:58;;;;;;;4.63;4.30;;;;;;;31.33;46.97;156625.44;10484305;28;20148;-78
2023/08/17 11:19:00;;;;;;;5.40;4.90;;;;;;;31.24;49.62;156603.13;10495291;28;20044;-76
2023/08/17 11:24:08;;;;;;;4.10;3.90;;;;;;;31.89;47.33;156770.78;10497632;28;20037;-76
2023/08/17 11:29:11;;;;;;;4.90;4.60;;;;;;;32.07;46.43;156815.28;10498633;28;20041;-76
2023/08/17 11:34:15;;;;;;;4.28;4.07;;;;;;;31.91;48.36;156774.69;10501696;28;20521;-76
2023/08/17 11:39:20;;;;;;;4.57;4.18;;;;;;;32.18;48.94;156842.78;10510931;28;20044;-75
2023/08/17 11:44:22;;;;;;;4.18;3.88;;;;;;;32.48;45.45;156921.38;10506666;28;20123;-75
2023/08/17 11:49:25;;;;;;;4.50;4.03;;;;;;;31.94;46.44;156781.25;10493575;28;20077;-77
2023/08/17 11:54:27;;;;;;;5.10;4.70;;;;;;;32.11;49.16;156827.09;10494608;28;20095;-76
2023/08/17 11:59:31;;;;;;;4.28;3.97;;;;;;;32.50;45.84;156926.66;10494523;28;20094;-76
2023/08/17 12:04:33;;;;;;;4.50;4.20;;;;;;;32.21;47.00;156850.66;10484639;28;20124;-76
2023/08/17 12:09:35;;;;;;;3.97;3.78;;;;;;;32.40;47.38;156901.72;10465213;28;20563;-75
2023/08/17 12:14:40;;;;;;;3.85;3.55;;;;;;;31.84;46.27;156757.69;10462038;28;20445;-76
2023/08/17 12:19:48;;;;;;;4.78;4.38;;;;;;;32.07;46.58;156815.28;10465705;28;20091;-76
2023/08/17 12:24:50;;;;;;;4.88;4.57;;;;;;;32.37;46.74;156892.56;10473591;28;20056;-75
2023/08/17 12:29:52;;;;;;;4.68;4.13;;;;;;;32.45;44.41;156913.56;10504301;28;20119;-75
2023/08/17 12:34:53;;;;;;;4.00;3.70;;;;;;;32.28;45.82;156870.28;10504807;28;20087;-75
2023/08/17 12:39:55;;;;;;;4.45;4.15;;;;;;;32.45;44.60;156913.56;10505468;28;20040;-74
2023/08/17 12:44:57;;;;;;;4.72;4.43;;;;;;;32.30;46.43;156874.22;10502418;28;20047;-76
2023/08/17 12:50:00;;;;;;;4.10;3.80;;;;;;;32.17;43.82;156840.16;10502731;28;20051;-75
2023/08/17 12:55:02;;;;;;;6.43;3.70;;;;;;;31.58;41.80;156690.88;10503133;28;20074;-75
2023/08/17 13:00:04;;;;;;;3.42;3.17;;;;;;;31.01;43.00;156542.97;10504837;28;20040;-75
2023/08/17 13:05:06;;;;;;;4.15;3.83;;;;;;;30.60;44.93;156439.56;10503777;28;20041;-75
2023/08/17 13:10:08;;;;;;;3.83;3.47;;;;;;;30.53;45.84;156421.22;10504394;28;20086;-75
2023/08/17 13:15:10;;;;;;;3.90;3.50;;;;;;;30.98;44.02;156535.09;10503988;28;20090;-72
2023/08/17 13:20:12;;;;;;;3.28;3.08;;;;;;;30.89;44.14;156514.16;10503431;28;20040;-70
2023/08/17 13:25:14;;;;;;;3.30;3.10;;;;;;;31.22;42.12;156596.63;10504052;28;20051;-72
2023/08/17 13:30:16;;;;;;;3.85;3.65;;;;;;;31.69;41.66;156717.06;10503320;28;20068;-70
2023/08/17 13:35:20;;;;;;;3.15;2.95;;;;;;;31.83;42.28;156753.75;10503277;28;20075;-72
2023/08/17 13:40:22;;;;;;;3.50;3.20;;;;;;;32.09;41.10;156821.81;10504197;28;20043;-70
2023/08/17 13:45:24;;;;;;;3.50;3.22;;;;;;;31.91;39.77;156774.69;10496819;28;20051;-71
2023/08/17 13:50:27;;;;;;;3.85;3.22;;;;;;;31.97;39.43;156789.13;10499296;28;20048;-72
2023/08/17 13:55:29;;;;;;;3.00;2.47;;;;;;;31.82;40.63;156751.09;10459882;28;20408;-71
2023/08/17 14:00:31;;;;;;;3.33;3.13;;;;;;;31.86;41.34;156762.91;10476337;28;20036;-71
2023/08/17 14:05:33;;;;;;;4.80;3.25;;;;;;;31.40;40.27;156643.78;10502241;28;20055;-70
2023/08/17 14:10:36;;;;;;;4.32;3.13;;;;;;;31.00;41.22;156540.34;10491371;28;20040;-70
2023/08/17 14:15:41;;;;;;;4.07;3.78;;;;;;;30.51;42.58;156414.72;10483394;28;20494;-71
2023/08/17 14:20:43;;;;;;;3.35;3.15;;;;;;;30.03;43.55;156291.72;10503880;28;20477;-69
2023/08/17 14:25:45;;;;;;;3.88;3.25;;;;;;;29.56;44.97;156172.69;10502222;28;20445;-71
2023/08/17 14:30:46;;;;;;;4.30;3.90;;;;;;;29.33;44.86;156113.81;10501793;28;20045;-71
2023/08/17 14:35:53;;;;;;;3.35;3.10;;;;;;;29.08;47.22;156048.44;10502918;28;20051;-70
2023/08/17 14:40:55;;;;;;;4.07;3.78;;;;;;;28.96;46.66;156018.41;10501632;28;20036;-70
2023/08/17 14:45:57;;;;;;;3.80;3.60;;;;;;;28.76;48.37;155966.06;10502539;28;20128;-70
2023/08/17 14:50:59;;;;;;;4.32;4.03;;;;;;;28.84;49.57;155987.00;10500515;28;20033;-70
2023/08/17 14:56:01;;;;;;;4.22;3.83;;;;;;;28.95;52.03;156014.41;10499930;28;20532;-71
2023/08/17 15:01:03;;;;;;;4.00;3.63;;;;;;;29.14;50.60;156064.16;10502142;28;20036;-71
2023/08/17 15:06:06;;;;;;;3.13;2.92;;;;;;;28.99;53.23;156024.94;10500679;28;20127;-71
2023/08/17 15:11:24;;;;;;;3.97;3.75;;;;;;;29.02;54.83;156034.09;10502788;28;20036;-71
2023/08/17 15:16:27;;;;;;;3.78;3.53;;;;;;;29.20;54.87;156078.53;10501359;28;20097;-71
2023/08/17 15:21:29;;;;;;;3.83;3.58;;;;;;;29.29;52.06;156103.34;10499909;28;20209;-71
2023/08/17 15:26:31;;;;;;;4.32;4.03;;;;;;;29.21;56.01;156081.13;10500639;28;20075;-71
2023/08/17 15:31:33;;;;;;;4.32;4.07;;;;;;;29.10;53.06;156055.00;10500594;28;20052;-72
2023/08/17 15:36:35;;;;;;;4.05;3.75;;;;;;;29.05;56.22;156041.94;10500407;28;20048;-71
2023/08/17 15:41:38;;;;;;;5.07;4.72;;;;;;;28.87;57.75;155994.84;10483821;28;20047;-72
2023/08/17 15:46:40;;;;;;;4.22;3.92;;;;;;;28.89;55.97;156000.06;10487969;28;20387;-71
2023/08/17 15:51:42;;;;;;;3.90;3.60;;;;;;;28.78;56.30;155972.63;10503093;28;20033;-71
2023/08/17 15:56:44;;;;;;;5.15;4.85;;;;;;;28.68;58.57;155946.47;10463997;28;20041;-71
2023/08/17 16:01:47;;;;;;;4.70;4.40;;;;;;;28.64;58.07;155936.00;10458610;28;20490;-72
2023/08/17 16:06:49;;;;;;;3.95;3.65;;;;;;;28.79;55.94;155973.94;10458280;28;20063;-72
2023/08/17 16:11:51;;;;;;;4.75;4.45;;;;;;;28.52;57.79;155905.97;10499965;28;20072;-71
2023/08/17 16:16:53;;;;;;;4.32;4.03;;;;;;;28.39;58.29;155873.31;10499232;28;20113;-71
2023/08/17 16:21:58;;;;;;;;;;;;;;;28.26;58.83;155838.00;10489268;28;20548;-71
2023/08/17 16:27:01;;;;;;;4.93;4.63;;;;;;;28.15;60.96;155810.53;10506401;28;19920;-71
2023/08/17 16:32:03;;;;;;;4.72;4.43;;;;;;;28.10;60.57;155797.47;10487624;28;20524;-71
2023/08/17 16:37:08;;;;;;;;;;;;;;;28.01;62.25;155773.97;10507699;28;20029;-71
2023/08/17 16:42:10;;;;;;;6.15;5.55;;;;;;;27.86;61.03;155736.09;10505263;28;19931;-71
2023/08/17 16:47:12;;;;;;;5.45;5.05;;;;;;;27.76;61.00;155709.94;10503943;28;20055;-71
2023/08/17 16:52:14;;;;;;;5.50;5.20;;;;;;;27.89;60.56;155745.25;10504608;28;20044;-71
2023/08/17 16:57:16;;;;;;;7.65;4.78;;;;;;;27.81;65.54;155724.34;10503834;28;20041;-71
2023/08/17 17:02:18;;;;;;;6.03;5.63;;;;;;;27.61;65.70;155672.03;10504684;28;20052;-71
2023/08/17 17:07:20;;;;;;;5.88;5.50;;;;;;;27.64;59.55;155679.88;10504102;28;20387;-71
2023/08/17 17:12:23;;;;;;;6.22;5.82;;;;;;;27.50;59.56;155643.31;10505773;28;20040;-74
2023/08/17 17:17:25;;;;;;;5.35;5.05;;;;;;;27.36;61.29;155609.38;10507283;28;20478;-75
2023/08/17 17:22:27;;;;;;;5.40;5.00;;;;;;;27.31;60.86;155594.97;10503885;28;20098;-75
2023/08/17 17:27:30;;;;;;;5.25;4.88;;;;;;;27.32;59.52;155598.94;10487494;28;20052;-74
2023/08/17 17:32:32;;;;;;;5.10;4.80;;;;;;;27.41;63.61;155621.13;10506056;28;20137;-75
2023/08/17 17:37:34;;;;;;;6.03;5.63;;;;;;;27.32;63.74;155597.63;10504916;28;20044;-74
2023/08/17 17:42:36;;;;;;;5.80;5.40;;;;;;;27.29;66.34;155589.78;10505161;28;20044;-74
2023/08/17 17:47:38;;;;;;;6.07;5.68;;;;;;;26.95;67.70;155502.25;10504737;28;20528;-74
2023/08/17 17:52:40;;;;;;;6.03;5.63;;;;;;;26.79;68.96;155463.09;10494760;28;20098;-74
2023/08/17 17:57:42;;;;;;;5.82;5.53;;;;;;;26.74;70.71;155448.69;10480644;28;20059;-74
2023/08/17 18:02:44;;;;;;;6.22;5.72;;;;;;;26.55;72.07;155401.72;10482742;28;20049;-74
2023/08/17 18:07:46;;;;;;;5.65;5.25;;;;;;;26.31;72.50;155339.06;10504337;28;20131;-74
2023/08/17 18:12:48;;;;;;;6.55;6.05;;;;;;;26.44;68.39;155371.72;10484995;28;20360;-74
2023/08/17 18:17:49;;;;;;;4.72;4.18;;;;;;;26.60;62.96;155413.47;10449090;28;20210;-74
2023/08/17 18:22:52;;;;;;;4.93;4.50;;;;;;;26.74;61.67;155448.69;10465768;28;20048;-75
2023/08/17 18:27:54;;;;;;;10.82;4.13;;;;;;;26.51;63.48;155389.97;10461631;28;20490;-75
2023/08/17 18:32:56;;;;;;;5.00;4.60;;;;;;;26.57;64.11;155405.66;10462418;28;20041;-75
2023/08/17 18:37:58;;;;;;;3.63;3.42;;;;;;;26.49;64.37;155386.06;10463127;28;20112;-75
2023/08/17 18:43:00;;;;;;;5.00;4.60;;;;;;;26.16;65.84;155302.53;10463934;28;20071;-76
2023/08/17 18:48:02;;;;;;;4.90;4.50;;;;;;;26.05;67.67;155272.50;10451392;28;20037;-75
2023/08/17 18:53:05;;;;;;;4.95;4.65;;;;;;;26.02;67.38;155265.94;10472667;28;20041;-74
2023/08/17 18:58:07;;;;;;;4.55;4.25;;;;;;;25.98;68.06;155254.22;10458203;28;20051;-75
2023/08/17 19:03:10;;;;;;;4.82;4.47;;;;;;;25.87;68.63;155226.84;10452947;28;20049;-74
2023/08/17 19:08:12;;;;;;;3.95;3.65;;;;;;;25.73;70.38;155191.56;10450303;28;20037;-75
2023/08/17 19:13:14;;;;;;;4.05;3.85;;;;;;;25.56;70.86;155147.22;10449037;28;20037;-75
2023/08/17 19:18:16;;;;;;;8.13;5.22;;;;;;;25.63;71.77;155166.78;10450069;28;20048;-76
2023/08/17 19:23:18;;;;;;;4.97;4.68;;;;;;;25.39;73.39;155104.16;10466048;28;20041;-75
2023/08/17 19:28:21;;;;;;;5.28;4.90;;;;;;;25.08;75.15;155025.91;10465073;28;20410;-75
2023/08/17 19:33:23;;;;;;;5.72;5.30;;;;;;;25.20;75.31;155055.91;10464883;28;20102;-74
2023/08/17 19:38:25;;;;;;;5.53;5.13;;;;;;;25.07;76.43;155021.97;10465788;28;20498;-74
2023/08/17 19:43:27;;;;;;;5.40;5.00;;;;;;;25.33;69.59;155088.53;10461945;28;20052;-76
2023/08/17 19:48:29;;;;;;;5.25;4.95;;;;;;;25.12;69.82;155035.03;10460709;28;20128;-74
2023/08/17 19:53:31;;;;;;;5.03;4.63;;;;;;;24.91;70.40;154981.50;10462938;28;20079;-75
2023/08/17 19:58:33;;;;;;;4.03;3.72;;;;;;;24.78;69.57;154947.63;10472120;28;20044;-74
2023/08/17 20:03:35;;;;;;;3.72;3.50;;;;;;;24.70;68.70;154926.75;10469484;28;20119;-74
2023/08/17 20:08:37;;;;;;;4.38;4.07;;;;;;;24.74;67.65;154938.47;10468465;28;20036;-74
2023/08/17 20:13:39;;;;;;;4.25;3.85;;;;;;;24.61;68.60;154905.94;10450632;28;20057;-75
2023/08/17 20:18:41;;;;;;;4.72;4.43;;;;;;;24.36;70.57;154840.69;10450274;28;20083;-75
2023/08/17 20:23:43;;;;;;;5.75;5.35;;;;;;;24.22;72.92;154804.22;10467348;28;20041;-75
2023/08/17 20:28:45;;;;;;;5.53;5.13;;;;;;;24.29;73.34;154823.72;10470347;28;20041;-73
2023/08/17 20:33:48;;;;;;;6.50;5.95;;;;;;;24.14;74.58;154785.94;10453215;28;20048;-74
2023/08/17 20:38:51;;;;;;;6.32;5.93;;;;;;;24.20;74.81;154800.25;10469847;28;20131;-73
2023/08/17 20:43:53;;;;;;;6.10;5.70;;;;;;;24.24;74.10;154809.41;10467316;28;20048;-75
2023/08/17 20:48:57;;;;;;;6.30;5.80;;;;;;;24.13;74.67;154783.34;10433698;28;20499;-73
2023/08/17 20:53:58;;;;;;;6.47;5.93;;;;;;;23.91;75.51;154726.00;10464399;28;20120;-74
2023/08/17 20:59:00;;;;;;;6.07;5.68;;;;;;;23.88;73.47;154719.47;10462821;28;20457;-74
2023/08/17 21:04:02;;;;;;;5.25;4.90;;;;;;;23.75;74.47;154685.59;10462542;28;20503;-74
2023/08/17 21:09:04;;;;;;;5.70;5.30;;;;;;;23.56;76.26;154637.34;10461722;28;20037;-73
2023/08/17 21:14:06;;;;;;;5.93;5.53;;;;;;;23.45;76.93;154608.66;10462169;28;20045;-74
2023/08/17 21:19:08;;;;;;;5.88;5.47;;;;;;;23.37;76.86;154587.81;10461208;28;20063;-74
2023/08/17 21:24:10;;;;;;;5.47;5.07;;;;;;;23.13;78.44;154527.91;10461191;28;20041;-74
2023/08/17 21:29:11;;;;;;;6.00;5.40;;;;;;;23.01;78.75;154496.66;10461051;28;20052;-74
2023/08/17 21:34:15;;;;;;;6.03;5.63;;;;;;;22.98;79.25;154487.56;10460969;28;20095;-73
2023/08/17 21:39:17;;;;;;;5.10;4.80;;;;;;;22.89;80.37;154466.72;10460836;28;20037;-73
2023/08/17 21:44:24;;;;;;;5.93;5.53;;;;;;;22.92;80.79;154474.50;10443129;28;20053;-74
2023/08/17 21:49:25;;;;;;;5.22;4.82;;;;;;;22.86;80.72;154458.84;10460351;28;20048;-73
2023/08/17 21:54:27;;;;;;;5.60;5.20;;;;;;;22.77;81.23;154434.13;10460151;28;20048;-74
2023/08/17 21:59:29;;;;;;;5.60;5.20;;;;;;;22.87;81.79;154460.13;10458995;28;20090;-74
2023/08/17 22:04:32;;;;;;;5.35;5.05;;;;;;;22.66;82.91;154406.75;10459303;28;20049;-74
2023/08/17 22:09:34;;;;;;;5.30;4.88;;;;;;;22.60;82.20;154392.44;10459447;28;20132;-74
2023/08/17 22:14:36;;;;;;;5.10;4.70;;;;;;;22.64;80.13;154402.84;10458946;28;20041;-74
2023/08/17 22:19:37;;;;;;;5.20;4.90;;;;;;;22.57;81.84;154384.59;10458840;28;20048;-73
2023/08/17 22:24:39;;;;;;;5.68;5.30;;;;;;;22.51;82.32;154367.72;10459053;28;20556;-74
2023/08/17 22:29:52;;;;;;;5.32;5.03;;;;;;;22.35;83.65;154327.31;10458310;28;20048;-73
2023/08/17 22:34:54;;;;;;;4.97;4.68;;;;;;;22.44;82.92;154349.47;10458150;28;20041;-74
2023/08/17 22:39:56;;;;;;;6.05;5.45;;;;;;;22.40;82.30;154340.34;10459924;28;20491;-74
2023/08/17 22:44:57;;;;;;;5.20;4.88;;;;;;;21.97;85.32;154230.97;10460106;28;20037;-74
2023/08/17 22:49:59;;;;;;;5.07;4.78;;;;;;;21.82;85.95;154193.19;10458050;28;20549;-74
2023/08/17 22:55:08;;;;;;;5.90;5.50;;;;;;;21.85;86.72;154201.03;10441258;28;20049;-75
2023/08/17 23:00:10;;;;;;;5.80;5.40;;;;;;;21.96;87.43;154228.38;10457956;28;20436;-74
2023/08/17 23:05:12;;;;;;;6.38;5.97;;;;;;;21.97;88.10;154229.69;10438949;28;20143;-75